createdAt,value
2023-03-29T03:10:43.668Z,-1.87
2023-03-29T03:13:46.334Z,-1.88
2023-03-29T03:16:49.523Z,-1.81
2023-03-29T03:19:53.118Z,-1.83
2023-03-29T03:22:57.503Z,-1.81
2023-03-29T03:26:00.138Z,-1.86
2023-03-29T03:29:03.039Z,-1.81
2023-03-29T03:32:07.877Z,-1.81
2023-03-29T03:35:12.463Z,-1.82
2023-03-29T03:38:15.588Z,-1.76
2023-03-29T03:41:18.201Z,-1.89
2023-03-29T03:44:21.039Z,-1.80
2023-03-29T03:47:24.718Z,-1.84
2023-03-29T03:50:28.106Z,-1.75
2023-03-29T03:53:30.364Z,-1.67
2023-03-29T03:56:34.177Z,-1.78
2023-03-29T03:59:38.855Z,-1.81
2023-03-29T04:02:44.205Z,-1.78
2023-03-29T04:05:47.737Z,-1.82
2023-03-29T04:08:50.556Z,-1.71
2023-03-29T04:11:53.190Z,-1.78
2023-03-29T04:14:56.021Z,-1.69
2023-03-29T04:18:00.566Z,-1.70
2023-03-29T04:21:03.567Z,-1.60
2023-03-29T04:24:09.392Z,-1.62
2023-03-29T04:27:12.481Z,-1.49
2023-03-29T04:30:15.069Z,-1.67
2023-03-29T04:33:19.702Z,-1.75
2023-03-29T04:36:22.701Z,-1.79
2023-03-29T04:39:32.996Z,-1.81
2023-03-29T04:42:38.946Z,-1.51
2023-03-29T04:45:41.521Z,-1.64
2023-03-29T04:48:44.161Z,-1.57
2023-03-29T04:51:47.647Z,-1.44
2023-03-29T04:54:50.564Z,-0.95
2023-03-29T04:57:53.697Z,-0.54
2023-03-29T05:01:00.059Z,-0.17
2023-03-29T05:04:03.727Z,0.09
2023-03-29T05:07:07.711Z,0.13
2023-03-29T05:10:10.022Z,0.44
2023-03-29T05:13:12.479Z,0.39
2023-03-29T05:16:15.939Z,0.25
2023-03-29T05:19:21.697Z,0.28
2023-03-29T05:22:24.771Z,0.52
2023-03-29T05:25:27.258Z,0.43
2023-03-29T05:28:29.546Z,0.31
2023-03-29T05:31:32.552Z,0.64
2023-03-29T05:34:35.286Z,0.86
2023-03-29T05:37:38.996Z,0.91
2023-03-29T05:40:41.882Z,1.20
2023-03-29T05:43:46.187Z,1.40
2023-03-29T05:46:48.541Z,1.27
2023-03-29T05:49:51.626Z,1.26
2023-03-29T05:52:55.078Z,1.36
2023-03-29T05:55:58.679Z,1.41
2023-03-29T05:59:02.128Z,1.48
2023-03-29T06:02:04.937Z,1.34
2023-03-29T06:05:09.127Z,1.35
2023-03-29T06:08:12.272Z,1.72
2023-03-29T06:11:16.500Z,1.98
2023-03-29T06:14:24.649Z,2.13
2023-03-29T06:17:27.987Z,2.33
2023-03-29T06:20:30.487Z,2.23
2023-03-29T06:23:33.671Z,2.27
2023-03-29T06:26:36.128Z,2.49
2023-03-29T06:29:38.552Z,2.48
2023-03-29T06:32:42.006Z,2.49
2023-03-29T06:35:48.269Z,2.49
2023-03-29T06:38:50.766Z,2.93
2023-03-29T06:41:55.386Z,3.41
2023-03-29T06:44:58.419Z,3.91
2023-03-29T06:48:03.098Z,4.73
2023-03-29T06:51:07.757Z,5.55
2023-03-29T06:54:11.656Z,5.72
2023-03-29T06:57:15.128Z,6.06
2023-03-29T07:00:19.234Z,6.56
2023-03-29T07:03:25.032Z,7.42
2023-03-29T07:06:29.223Z,7.75
2023-03-29T07:09:33.444Z,6.89
2023-03-29T07:12:38.181Z,6.78
2023-03-29T07:15:41.665Z,6.99
2023-03-29T07:18:45.458Z,6.93
2023-03-29T07:21:51.549Z,7.21
2023-03-29T07:24:54.301Z,6.84
2023-03-29T07:27:56.934Z,6.75
2023-03-29T07:31:17.611Z,6.87
2023-03-29T07:34:20.532Z,6.81
2023-03-29T07:37:24.642Z,8.45
2023-03-29T07:40:28.051Z,9.35
2023-03-29T07:43:32.331Z,9.19
2023-03-29T07:46:37.956Z,10.27
2023-03-29T07:49:40.408Z,11.17
2023-03-29T07:52:43.487Z,10.37
2023-03-29T07:55:49.836Z,10.18
2023-03-29T07:58:52.515Z,8.34
2023-03-29T08:01:55.421Z,9.01
2023-03-29T08:04:58.907Z,8.85
2023-03-29T08:08:03.778Z,8.62
2023-03-29T08:15:13.170Z,7.57
2023-03-29T08:18:17.208Z,7.70
2023-03-29T08:21:19.352Z,7.83
2023-03-29T08:24:22.353Z,8.36
2023-03-29T08:27:25.616Z,9.01
2023-03-29T08:30:30.825Z,8.84
2023-03-29T08:33:33.666Z,8.82
2023-03-29T08:36:36.517Z,9.19
2023-03-29T08:39:39.660Z,9.57
2023-03-29T08:42:49.626Z,9.82
2023-03-29T08:46:06.305Z,9.53
2023-03-29T08:49:12.220Z,9.57
2023-03-29T08:52:21.003Z,11.41
2023-03-29T08:55:38.210Z,12.38
2023-03-29T08:58:45.761Z,13.87
2023-03-29T09:01:51.821Z,15.14
2023-03-29T09:05:00.410Z,16.67
2023-03-29T09:08:03.309Z,19.07
2023-03-29T09:11:14.620Z,19.63
2023-03-29T09:14:46.310Z,21.62
2023-03-29T09:17:58.367Z,21.38
2023-03-29T09:21:16.338Z,24.70
2023-03-29T09:24:18.933Z,21.69
2023-03-29T09:27:48.275Z,21.12
2023-03-29T09:31:06.270Z,24.56
2023-03-29T09:34:22.743Z,24.24
2023-03-29T09:37:33.142Z,20.82
2023-03-29T09:40:48.910Z,18.10
2023-03-29T09:43:53.332Z,19.21
2023-03-29T09:47:01.313Z,19.41
2023-03-29T09:50:23.496Z,14.82
2023-03-29T09:53:33.531Z,18.92
2023-03-29T09:56:36.408Z,22.15
2023-03-29T09:59:40.364Z,22.17
2023-03-29T10:02:49.814Z,22.18
2023-03-29T10:05:55.806Z,20.93
2023-03-29T10:08:59.406Z,22.35
2023-03-29T10:12:06.774Z,24.15
2023-03-29T10:15:26.750Z,22.75
2023-03-29T10:18:33.098Z,23.35
2023-03-29T10:21:37.405Z,22.65
2023-03-29T10:24:40.008Z,24.56
2023-03-29T10:27:44.894Z,23.75
2023-03-29T10:30:53.872Z,24.31
2023-03-29T10:33:58.159Z,23.54
2023-03-29T10:37:02.113Z,24.99
2023-03-29T10:40:06.531Z,23.66
2023-03-29T10:43:18.184Z,23.98
2023-03-29T10:46:30.202Z,22.45
2023-03-29T10:49:41.257Z,23.78
2023-03-29T10:52:43.670Z,24.40
2023-03-29T10:56:18.500Z,23.54
2023-03-29T10:59:29.876Z,26.27
2023-03-29T11:03:05.558Z,27.34
2023-03-29T11:06:14.195Z,29.42
2023-03-29T11:09:39.750Z,29.23
2023-03-29T11:12:57.484Z,28.42
2023-03-29T11:16:17.800Z,26.08
2023-03-29T11:19:58.752Z,25.96
2023-03-29T11:23:37.550Z,26.30
2023-03-29T11:27:09.445Z,26.63
2023-03-29T11:30:18.049Z,26.26
2023-03-29T11:33:33.517Z,27.61
2023-03-29T11:36:59.562Z,27.18
2023-03-29T11:40:08.310Z,24.40
2023-03-29T11:44:03.490Z,20.31
2023-03-29T11:47:20.858Z,19.88
2023-03-29T11:50:30.074Z,20.82
2023-03-29T11:53:58.996Z,17.66
2023-03-29T11:57:14.285Z,15.82
2023-03-29T12:00:25.016Z,15.65
2023-03-29T12:03:46.760Z,14.31
2023-03-29T12:07:23.897Z,14.38
2023-03-29T12:10:35.812Z,13.63
2023-03-29T12:13:44.472Z,13.55
2023-03-29T12:16:55.226Z,13.66
2023-03-29T12:20:13.332Z,13.12
2023-03-29T12:23:17.715Z,12.49
2023-03-29T12:26:29.102Z,12.60
2023-03-29T12:29:31.466Z,11.97
2023-03-29T12:33:06.033Z,12.29
2023-03-29T12:36:44.367Z,12.29
2023-03-29T12:39:49.281Z,11.60
2023-03-29T12:43:03.310Z,12.04
2023-03-29T12:46:26.908Z,11.70
2023-03-29T12:49:47.804Z,11.86
2023-03-29T12:52:50.319Z,11.65
2023-03-29T12:56:08.594Z,11.51
2023-03-29T12:59:10.733Z,11.57
2023-03-29T13:02:13.998Z,11.27
2023-03-29T13:05:32.792Z,11.26
2023-03-29T13:08:38.661Z,11.44
2023-03-29T13:11:42.576Z,11.37
2023-03-29T13:14:51.746Z,11.23
2023-03-29T13:18:19.123Z,11.87
2023-03-29T13:21:52.849Z,12.22
2023-03-29T13:25:10.300Z,11.43
2023-03-29T13:28:21.091Z,11.62
2023-03-29T13:31:45.651Z,11.33
2023-03-29T13:35:07.486Z,11.33
2023-03-29T13:38:21.024Z,11.32
2023-03-29T13:41:33.419Z,11.39
2023-03-29T13:44:45.484Z,11.52
2023-03-29T13:47:58.680Z,11.47
2023-03-29T13:51:18.468Z,11.40
2023-03-29T13:54:33.587Z,11.21
2023-03-29T13:57:43.566Z,11.35
2023-03-29T14:00:51.287Z,11.63
2023-03-29T14:03:55.653Z,11.78
2023-03-29T14:06:58.232Z,11.17
2023-03-29T14:10:01.609Z,11.02
2023-03-29T14:13:04.583Z,11.32
2023-03-29T14:16:10.956Z,11.61
2023-03-29T14:19:29.561Z,11.55
2023-03-29T14:22:33.924Z,11.52
2023-03-29T14:25:39.447Z,11.44
2023-03-29T14:28:47.598Z,11.20
2023-03-29T14:31:50.218Z,11.35
2023-03-29T14:34:53.065Z,11.26
2023-03-29T14:37:55.298Z,11.25
2023-03-29T14:41:02.261Z,11.92
2023-03-29T14:44:07.944Z,11.77
2023-03-29T14:47:18.889Z,11.78
2023-03-29T14:50:28.712Z,11.63
2023-03-29T14:53:32.366Z,11.37
2023-03-29T14:56:34.952Z,11.30
2023-03-29T14:59:41.244Z,11.39
2023-03-29T15:02:54.477Z,11.29
2023-03-29T15:06:04.275Z,10.97
2023-03-29T15:09:13.992Z,10.94
2023-03-29T15:12:16.649Z,10.53
2023-03-29T15:15:19.740Z,10.62
2023-03-29T15:18:40.848Z,10.87
2023-03-29T15:21:44.235Z,10.94
2023-03-29T15:24:48.802Z,10.76
2023-03-29T15:27:55.888Z,10.65
2023-03-29T15:31:13.099Z,10.68
